Time;durP1;ratioP1;P1;durP2;ratioP2;P2;SDS_P1;SDS_P2;PMS_P1;PMS_P2;Temp;Humidity;BMP_temperature;BMP_pressure;BME280_temperature;BME280_humidity;BME280_pressure;Samples;Min_cycle;Max_cycle;Signal;HPM_P1;HPM_P2
2022/06/23 00:01:35;;;;;;;4.33;1.60;;;;;;;14.28;100.00;98628.36;1725562;81;21075;-68
2022/06/23 00:04:01;;;;;;;2.75;1.60;;;;;;;14.28;100.00;98633.84;1743478;80;21095;-65
2022/06/23 00:06:40;;;;;;;5.87;1.32;;;;;;;14.26;100.00;98638.28;1736867;81;21092;-64
2022/06/23 00:09:28;;;;;;;4.10;1.65;;;;;;;14.23;100.00;98632.09;1700734;83;21088;-67
2022/06/23 00:11:55;;;;;;;2.95;1.30;;;;;;;14.22;100.00;98642.78;1752619;80;21558;-64
2022/06/23 00:14:23;;;;;;;3.45;1.30;;;;;;;14.24;100.00;98648.73;1702256;83;20980;-63
2022/06/23 00:16:49;;;;;;;3.20;1.30;;;;;;;14.26;100.00;98651.97;1695204;83;21545;-68
2022/06/23 00:19:16;;;;;;;1.90;1.12;;;;;;;14.26;100.00;98644.31;1701030;83;20984;-68
2022/06/23 00:21:48;;;;;;;2.58;1.17;;;;;;;14.28;100.00;98646.96;1742360;80;20983;-64
2022/06/23 00:24:19;;;;;;;3.37;1.50;;;;;;;14.27;100.00;98649.48;1760936;80;20960;-67
2022/06/23 00:26:46;;;;;;;2.35;1.27;;;;;;;14.29;100.00;98651.32;1746406;81;21109;-63
2022/06/23 00:29:17;;;;;;;3.17;1.30;;;;;;;14.27;100.00;98659.06;1713285;83;21490;-64
2022/06/23 00:31:45;;;;;;;1.90;1.25;;;;;;;14.31;100.00;98665.48;1697910;83;21055;-65
2022/06/23 00:34:26;;;;;;;1.82;1.27;;;;;;;14.34;100.00;98661.34;1714301;82;21526;-66
2022/06/23 00:36:56;;;;;;;4.33;1.37;;;;;;;14.38;100.00;98663.09;1748329;80;21025;-64
2022/06/23 00:39:37;;;;;;;4.22;1.22;;;;;;;14.40;100.00;98654.57;1760761;81;20967;-64
2022/06/23 00:42:08;;;;;;;2.12;1.32;;;;;;;14.39;100.00;98655.69;1706409;83;20996;-64
2022/06/23 00:45:13;;;;;;;4.20;1.47;;;;;;;14.39;100.00;98655.12;1746798;80;21077;-67
2022/06/23 00:48:08;;;;;;;1.90;1.20;;;;;;;14.39;100.00;98650.22;1746807;80;21523;-67
2022/06/23 00:50:48;;;;;;;3.30;1.40;;;;;;;14.40;100.00;98655.94;1759961;80;21508;-64
2022/06/23 00:53:20;;;;;;;3.45;1.77;;;;;;;14.38;100.00;98652.14;1742091;80;21472;-64
2022/06/23 00:56:15;;;;;;;4.17;1.60;;;;;;;14.39;100.00;98659.23;1746913;80;21071;-66
2022/06/23 00:58:50;;;;;;;2.85;1.60;;;;;;;14.38;100.00;98656.25;1688476;83;21033;-66
2022/06/23 01:01:54;;;;;;;2.22;1.35;;;;;;;14.37;100.00;98660.14;1690700;84;21853;-64
2022/06/23 01:05:01;;;;;;;2.62;1.50;;;;;;;14.36;100.00;98657.70;1763086;80;21605;-67
2022/06/23 01:07:55;;;;;;;2.80;1.60;;;;;;;14.31;100.00;98653.75;1764908;80;21374;-64
2022/06/23 01:10:51;;;;;;;5.70;1.82;;;;;;;14.28;100.00;98657.91;1751666;80;21118;-66
2022/06/23 01:13:42;;;;;;;4.60;1.92;;;;;;;14.26;100.00;98657.45;1759067;81;21086;-65
2022/06/23 01:16:14;;;;;;;3.50;1.82;;;;;;;14.24;100.00;98663.78;1763741;80;21483;-63
2022/06/23 01:18:54;;;;;;;5.05;2.00;;;;;;;14.16;100.00;98660.50;1754897;80;21503;-64
2022/06/23 01:21:29;;;;;;;4.37;2.02;;;;;;;14.11;100.00;98656.54;1690782;80;20998;-64
2022/06/23 01:24:24;;;;;;;3.27;1.67;;;;;;;14.05;100.00;98660.56;1763383;81;20992;-64
2022/06/23 01:27:06;;;;;;;3.27;1.85;;;;;;;14.03;100.00;98657.92;1750279;80;21059;-66
2022/06/23 01:29:48;;;;;;;5.20;2.35;;;;;;;14.02;100.00;98651.64;1748682;80;20940;-67
2022/06/23 01:32:30;;;;;;;3.87;1.90;;;;;;;14.00;100.00;98660.70;1759938;81;21007;-64
2022/06/23 01:35:19;;;;;;;4.20;1.90;;;;;;;14.00;100.00;98661.27;1744556;81;20972;-65
2022/06/23 01:37:58;;;;;;;5.28;1.95;;;;;;;13.99;100.00;98657.75;1741939;80;21472;-64
2022/06/23 01:40:42;;;;;;;7.05;2.50;;;;;;;14.03;100.00;98656.55;1747777;81;21059;-64
2022/06/23 01:43:26;;;;;;;4.47;2.40;;;;;;;14.03;100.00;98655.95;1666088;83;21582;-64
2022/06/23 01:46:16;;;;;;;6.10;2.35;;;;;;;14.02;100.00;98649.45;1757418;81;21075;-63
2022/06/23 01:48:59;;;;;;;6.10;2.10;;;;;;;14.02;100.00;98653.00;1759097;80;21010;-64
2022/06/23 01:51:40;;;;;;;5.12;2.12;;;;;;;14.07;100.00;98651.46;1748420;80;21031;-65
2022/06/23 01:54:24;;;;;;;4.65;2.37;;;;;;;14.09;100.00;98648.42;1717012;83;21540;-67
2022/06/23 01:57:11;;;;;;;6.90;2.72;;;;;;;14.10;100.00;98656.88;1764811;81;21028;-65
2022/06/23 01:59:56;;;;;;;4.50;2.08;;;;;;;14.10;100.00;98648.67;1745157;80;21375;-65
2022/06/23 02:02:58;;;;;;;3.77;1.95;;;;;;;14.11;100.00;98662.58;1755234;80;20992;-63
2022/06/23 02:05:33;;;;;;;4.67;2.20;;;;;;;14.14;100.00;98657.82;1756891;81;21095;-67
2022/06/23 02:08:11;;;;;;;5.80;2.37;;;;;;;14.15;100.00;98656.14;1723567;81;21107;-64
2022/06/23 02:11:09;;;;;;;4.28;2.20;;;;;;;14.19;100.00;98658.48;1736257;80;21466;-63
2022/06/23 02:13:53;;;;;;;5.37;2.33;;;;;;;14.21;100.00;98656.78;1758356;81;21094;-67
2022/06/23 02:16:37;;;;;;;6.05;2.10;;;;;;;14.23;100.00;98657.28;1766094;80;21485;-66
2022/06/23 02:19:47;;;;;;;5.47;2.47;;;;;;;14.27;100.00;98661.80;1703510;83;21058;-64
2022/06/23 02:22:35;;;;;;;3.58;2.20;;;;;;;14.31;100.00;98657.86;1671551;85;21049;-67
2022/06/23 02:25:16;;;;;;;6.20;2.30;;;;;;;14.36;100.00;98656.34;1741641;80;21040;-64
2022/06/23 02:27:51;;;;;;;8.20;2.30;;;;;;;14.38;100.00;98658.20;1743783;81;20998;-64
2022/06/23 02:30:34;;;;;;;2.70;1.95;;;;;;;14.42;100.00;98660.52;1738758;81;21058;-66
2022/06/23 02:33:18;;;;;;;3.12;2.30;;;;;;;14.44;100.00;98650.06;1729828;81;20985;-65
2022/06/23 02:36:14;;;;;;;5.28;2.22;;;;;;;14.47;100.00;98659.00;1723235;82;21036;-63
2022/06/23 02:38:56;;;;;;;5.17;2.15;;;;;;;14.51;100.00;98652.31;1733845;81;20981;-64
2022/06/23 02:41:40;;;;;;;5.50;2.75;;;;;;;14.53;100.00;98645.37;1724448;81;21058;-64
2022/06/23 02:44:30;;;;;;;4.92;2.60;;;;;;;14.55;100.00;98648.61;1736111;81;20982;-65
2022/06/23 02:47:14;;;;;;;7.42;2.77;;;;;;;14.59;100.00;98653.69;1733435;82;21068;-65
2022/06/23 02:49:46;;;;;;;6.65;3.27;;;;;;;14.61;100.00;98650.60;1743274;81;20955;-64
2022/06/23 02:52:30;;;;;;;5.40;2.37;;;;;;;14.63;100.00;98657.36;1732051;81;21010;-64
2022/06/23 02:55:20;;;;;;;5.10;2.60;;;;;;;14.66;100.00;98649.89;1719791;81;21489;-65
2022/06/23 02:58:05;;;;;;;4.72;2.50;;;;;;;14.71;100.00;98647.52;1715901;81;21014;-63
2022/06/23 03:00:49;;;;;;;5.45;2.62;;;;;;;14.75;100.00;98652.04;1729652;81;21663;-65
2022/06/23 03:03:35;;;;;;;3.80;2.27;;;;;;;14.77;100.00;98651.73;1734554;81;20991;-66
2022/06/23 03:06:10;;;;;;;4.85;2.87;;;;;;;14.78;100.00;98650.58;1704167;82;21645;-65
2022/06/23 03:08:48;;;;;;;5.55;2.90;;;;;;;14.81;100.00;98658.14;1729903;81;21025;-63
2022/06/23 03:11:51;;;;;;;3.40;2.47;;;;;;;14.83;100.00;98660.81;1727913;81;21054;-63
2022/06/23 03:13:55;;;;;;;3.45;2.20;;;;;;;14.87;100.00;98667.81;1714309;81;21065;-63
2022/06/23 03:16:32;;;;;;;3.27;2.40;;;;;;;14.90;100.00;98669.34;1716998;81;21076;-63
2022/06/23 03:19:06;;;;;;;4.42;2.87;;;;;;;14.94;100.00;98669.50;1737225;81;21080;-65
2022/06/23 03:21:44;;;;;;;3.65;2.85;;;;;;;14.95;100.00;98671.08;1725178;82;21544;-64
2022/06/23 03:24:22;;;;;;;5.70;2.60;;;;;;;14.97;100.00;98671.58;1726985;81;21049;-63
2022/06/23 03:26:59;;;;;;;4.97;2.60;;;;;;;14.98;100.00;98672.39;1746558;80;21055;-63
2022/06/23 03:29:34;;;;;;;;;;;;;;;14.99;100.00;98680.27;1720418;83;21027;-66
2022/06/23 03:32:21;;;;;;;4.47;2.60;;;;;;;15.05;100.00;98673.50;1705389;83;20121;-66
2022/06/23 03:35:14;;;;;;;5.78;2.75;;;;;;;14.99;100.00;98676.16;1742406;80;21046;-64
2022/06/23 03:38:13;;;;;;;4.47;2.72;;;;;;;15.03;100.00;98682.59;1743014;81;20972;-65
2022/06/23 03:43:58;;;;;;;3.62;2.45;;;;;;;15.16;100.00;98685.70;1742428;81;20972;-64
2022/06/23 03:46:30;;;;;;;6.95;2.85;;;;;;;15.15;100.00;98680.56;1748539;80;21554;-63
2022/06/23 03:49:00;;;;;;;5.17;2.77;;;;;;;15.19;100.00;98680.96;1763985;80;20968;-64
2022/06/23 03:51:33;;;;;;;4.45;2.67;;;;;;;15.24;100.00;98686.25;1742176;81;21071;-63
2022/06/23 03:54:13;;;;;;;6.08;2.90;;;;;;;15.27;100.00;98697.92;1749305;81;20959;-62
2022/06/23 03:56:51;;;;;;;5.30;2.65;;;;;;;15.28;100.00;98689.14;1759715;80;21048;-65
2022/06/23 03:59:35;;;;;;;4.62;2.65;;;;;;;15.30;100.00;98695.90;1745864;80;21404;-63
2022/06/23 04:02:20;;;;;;;6.53;2.55;;;;;;;15.36;100.00;98692.42;1726885;81;21701;-67
2022/06/23 04:04:58;;;;;;;4.95;2.70;;;;;;;15.36;100.00;98697.91;1737749;80;21045;-63
2022/06/23 04:07:35;;;;;;;3.42;2.40;;;;;;;15.38;100.00;98703.86;1753508;80;21002;-63
2022/06/23 04:10:09;;;;;;;6.42;2.52;;;;;;;15.44;100.00;98704.72;1752612;80;21592;-65
2022/06/23 04:12:37;;;;;;;7.50;2.87;;;;;;;15.51;100.00;98699.34;1751493;80;21067;-67
2022/06/23 04:15:08;;;;;;;5.08;2.37;;;;;;;15.53;100.00;98692.39;1731630;80;21023;-68
2022/06/23 04:17:48;;;;;;;3.92;2.80;;;;;;;15.54;100.00;98695.38;1748480;80;21681;-64
2022/06/23 04:20:40;;;;;;;2.77;2.12;;;;;;;15.54;100.00;98700.05;1742616;81;21784;-66
2022/06/23 04:23:12;;;;;;;4.28;2.15;;;;;;;15.56;100.00;98703.26;1763228;81;21055;-65
2022/06/23 04:26:06;;;;;;;4.22;2.80;;;;;;;15.59;100.00;98700.66;1734081;81;21588;-63
2022/06/23 04:28:36;;;;;;;4.40;2.58;;;;;;;15.59;100.00;98702.63;1749994;81;21455;-65
2022/06/23 04:31:06;;;;;;;4.65;2.22;;;;;;;15.55;100.00;98699.73;1753356;81;21573;-62
2022/06/23 04:33:38;;;;;;;4.12;2.70;;;;;;;15.62;100.00;98706.08;1702051;83;21503;-64
2022/06/23 04:36:04;;;;;;;5.65;2.67;;;;;;;15.68;100.00;98709.68;1671318;84;21040;-64
2022/06/23 04:38:44;;;;;;;6.80;2.52;;;;;;;15.72;100.00;98704.34;1738577;81;21012;-65
2022/06/23 04:41:30;;;;;;;4.45;2.45;;;;;;;15.74;100.00;98706.98;1756381;81;21063;-63
2022/06/23 04:44:22;;;;;;;4.77;2.50;;;;;;;15.82;100.00;98714.94;1741299;81;20987;-67
2022/06/23 04:47:02;;;;;;;6.50;2.75;;;;;;;15.82;100.00;98714.94;1744406;81;21067;-63
2022/06/23 04:49:37;;;;;;;7.45;2.70;;;;;;;15.84;100.00;98715.39;1718113;81;21005;-65
2022/06/23 04:52:18;;;;;;;5.92;2.67;;;;;;;15.87;100.00;98725.73;1725625;81;21087;-64
2022/06/23 04:55:06;;;;;;;7.70;2.65;;;;;;;15.86;100.00;98722.75;1748743;81;21013;-61
2022/06/23 04:57:47;;;;;;;4.25;2.55;;;;;;;15.83;100.00;98733.83;1745454;81;20992;-61
2022/06/23 05:00:32;;;;;;;6.45;2.55;;;;;;;15.84;100.00;98729.11;1751531;81;20999;-61
2022/06/23 05:03:01;;;;;;;4.80;2.35;;;;;;;15.91;100.00;98725.28;1745819;81;20972;-65
2022/06/23 05:05:34;;;;;;;5.90;2.40;;;;;;;15.97;100.00;98729.47;1753417;81;21000;-61
2022/06/23 05:08:14;;;;;;;3.90;2.45;;;;;;;16.08;100.00;98733.45;1757684;81;21011;-60
2022/06/23 05:11:01;;;;;;;3.33;2.10;;;;;;;16.14;100.00;98734.86;1758613;81;21000;-60
2022/06/23 05:13:32;;;;;;;4.47;2.10;;;;;;;16.20;100.00;98729.97;1755439;81;20961;-61
2022/06/23 05:16:10;;;;;;;5.80;2.47;;;;;;;16.26;100.00;98723.17;1695687;84;21574;-59
2022/06/23 05:18:48;;;;;;;6.78;3.20;;;;;;;16.36;100.00;98737.31;1706369;84;21823;-65
2022/06/23 05:21:19;;;;;;;6.42;2.67;;;;;;;16.40;100.00;98734.70;1748374;81;21090;-62
2022/06/23 05:23:50;;;;;;;5.67;2.80;;;;;;;16.43;100.00;98734.84;1756309;81;21445;-59
2022/06/23 05:26:29;;;;;;;3.87;2.50;;;;;;;16.51;100.00;98730.39;1738107;81;21041;-59
2022/06/23 05:29:05;;;;;;;4.08;2.72;;;;;;;16.61;100.00;98722.38;1734268;82;21065;-59
2022/06/23 05:31:34;;;;;;;5.40;3.00;;;;;;;16.72;100.00;98719.45;1759391;80;21087;-60
2022/06/23 05:34:08;;;;;;;4.00;2.77;;;;;;;16.71;100.00;98724.70;1744937;80;21039;-60
2022/06/23 05:36:46;;;;;;;4.28;2.70;;;;;;;16.78;100.00;98724.41;1741529;80;21603;-59
2022/06/23 05:39:18;;;;;;;6.20;3.02;;;;;;;16.87;100.00;98731.98;1754833;81;21519;-59
2022/06/23 05:41:51;;;;;;;5.75;3.10;;;;;;;17.00;100.00;98725.98;1744628;81;21590;-59
2022/06/23 05:44:31;;;;;;;5.00;2.83;;;;;;;17.02;100.00;98731.94;1742634;80;21045;-58
2022/06/23 05:47:01;;;;;;;5.30;2.95;;;;;;;17.12;100.00;98738.95;1736714;82;21068;-59
2022/06/23 05:49:38;;;;;;;4.75;3.08;;;;;;;17.23;100.00;98738.77;1713168;83;21024;-59
2022/06/23 05:52:12;;;;;;;;;;;;;;;17.31;100.00;98739.25;1771247;81;21585;-59
2022/06/23 05:54:47;;;;;;;6.62;3.40;;;;;;;17.40;100.00;98736.63;1745461;80;20115;-59
2022/06/23 05:57:21;;;;;;;6.45;3.40;;;;;;;17.51;100.00;98745.82;1736836;82;21056;-59
2022/06/23 06:00:07;;;;;;;6.95;3.70;;;;;;;17.59;100.00;98745.77;1750092;81;20959;-59
2022/06/23 06:02:50;;;;;;;5.87;3.22;;;;;;;17.64;100.00;98739.25;1762457;80;21073;-58
2022/06/23 06:05:34;;;;;;;8.63;4.00;;;;;;;17.76;100.00;98747.50;1762494;80;21539;-59
2022/06/23 06:08:04;;;;;;;8.10;4.10;;;;;;;18.11;100.00;98750.60;1719905;82;20997;-60
2022/06/23 06:10:31;;;;;;;6.12;3.62;;;;;;;18.48;100.00;98752.19;1742010;81;21625;-58
2022/06/23 06:12:57;;;;;;;5.33;3.60;;;;;;;18.55;100.00;98746.12;1746631;80;20985;-59
2022/06/23 06:15:31;;;;;;;6.67;3.12;;;;;;;18.71;100.00;98748.36;1757419;81;21632;-58
2022/06/23 06:18:12;;;;;;;6.08;3.42;;;;;;;18.82;100.00;98743.96;1746257;80;21023;-59
2022/06/23 06:20:39;;;;;;;6.10;3.12;;;;;;;18.91;100.00;98734.98;1739699;81;21118;-59
2022/06/23 06:23:23;;;;;;;7.87;3.77;;;;;;;18.83;100.00;98731.80;1717996;82;21004;-59
2022/06/23 06:25:50;;;;;;;5.37;2.80;;;;;;;18.77;100.00;98741.47;1745134;80;21624;-58
2022/06/23 06:28:23;;;;;;;5.22;3.10;;;;;;;18.71;100.00;98746.98;1754376;81;20999;-59
2022/06/23 06:31:15;;;;;;;5.58;3.00;;;;;;;18.66;100.00;98759.64;1738875;81;21010;-59
2022/06/23 06:34:14;;;;;;;6.15;2.98;;;;;;;18.51;100.00;98758.98;1700790;83;20984;-59
2022/06/23 06:36:44;;;;;;;8.48;3.33;;;;;;;18.36;100.00;98754.95;1744347;80;21537;-59
2022/06/23 06:41:16;;;;;;;9.03;2.95;;;;;;;18.51;100.00;98746.58;1779824;79;22859;-59
2022/06/23 06:43:43;;;;;;;4.50;2.62;;;;;;;18.38;100.00;98764.50;1718485;83;21048;-57
2022/06/23 06:46:09;;;;;;;5.75;2.87;;;;;;;18.39;100.00;98745.41;1714988;81;21078;-58
2022/06/23 06:48:36;;;;;;;6.15;3.20;;;;;;;18.46;100.00;98754.47;1714805;81;20970;-58
2022/06/23 06:51:10;;;;;;;7.87;3.42;;;;;;;18.73;100.00;98751.59;1707028;81;21489;-59
2022/06/23 06:53:41;;;;;;;6.65;3.20;;;;;;;19.09;100.00;98759.73;1697452;84;20958;-57
2022/06/23 06:56:15;;;;;;;4.65;2.98;;;;;;;19.14;100.00;98754.52;1681976;84;21037;-59
2022/06/23 06:58:53;;;;;;;5.12;3.50;;;;;;;19.14;100.00;98756.71;1679081;84;21474;-58
2022/06/23 07:01:23;;;;;;;6.45;3.55;;;;;;;19.14;100.00;98755.33;1690361;83;21090;-61
2022/06/23 07:03:52;;;;;;;7.40;3.58;;;;;;;19.19;100.00;98761.18;1706109;83;21368;-58
2022/06/23 07:06:33;;;;;;;7.78;3.22;;;;;;;19.33;100.00;98769.28;1715143;83;21054;-59
2022/06/23 07:09:17;;;;;;;6.45;3.50;;;;;;;19.60;100.00;98771.80;1680435;84;21616;-59
2022/06/23 07:12:07;;;;;;;5.28;3.20;;;;;;;20.04;100.00;98773.92;1682646;84;21074;-61
2022/06/23 07:14:52;;;;;;;6.75;3.98;;;;;;;20.38;100.00;98763.28;1674166;84;21662;-60
2022/06/23 07:17:29;;;;;;;4.90;3.37;;;;;;;20.51;100.00;98764.80;1681199;83;21041;-58
2022/06/23 07:20:00;;;;;;;5.53;2.90;;;;;;;20.77;100.00;98760.81;1711240;83;21046;-59
2022/06/23 07:22:33;;;;;;;4.62;2.77;;;;;;;20.77;100.00;98764.39;1684121;84;20964;-59
2022/06/23 07:25:10;;;;;;;9.43;2.60;;;;;;;20.45;100.00;98768.41;1673728;84;21560;-57
2022/06/23 07:27:59;;;;;;;3.72;2.65;;;;;;;20.16;100.00;98790.38;1647302;84;21538;-58
2022/06/23 07:30:37;;;;;;;4.72;2.40;;;;;;;20.04;100.00;98786.35;1680344;84;21055;-57
2022/06/23 07:33:15;;;;;;;3.30;2.20;;;;;;;19.89;100.00;98796.81;1709792;79;70497;-71
2022/06/23 07:35:54;;;;;;;4.25;2.77;;;;;;;19.91;100.00;98815.80;1706049;82;20968;-70
2022/06/23 07:38:29;;;;;;;7.05;2.50;;;;;;;19.83;100.00;98814.81;1720178;82;21053;-69
2022/06/23 07:41:17;;;;;;;3.52;2.30;;;;;;;19.78;100.00;98804.82;1731417;81;21050;-70
2022/06/23 07:44:07;;;;;;;5.33;2.85;;;;;;;19.65;100.00;98812.16;1741606;80;21709;-69
2022/06/23 07:46:36;;;;;;;4.67;2.60;;;;;;;19.62;100.00;98804.58;1744233;81;21006;-70
2022/06/23 07:49:03;;;;;;;6.42;2.52;;;;;;;19.56;100.00;98804.02;1692225;82;21085;-70
2022/06/23 07:51:30;;;;;;;5.92;2.67;;;;;;;19.72;100.00;98827.53;1724464;82;21006;-69
2022/06/23 07:53:56;;;;;;;3.52;2.52;;;;;;;19.97;100.00;98832.33;1722885;80;21097;-71
2022/06/23 07:56:29;;;;;;;6.03;2.60;;;;;;;20.13;100.00;98821.49;1730643;81;21038;-71
2022/06/23 07:59:13;;;;;;;4.12;2.33;;;;;;;20.13;100.00;98822.88;1738926;82;21591;-70
2022/06/23 08:01:48;;;;;;;6.45;2.50;;;;;;;20.00;100.00;98817.80;1724548;82;21107;-71
2022/06/23 08:04:44;;;;;;;5.42;2.45;;;;;;;19.91;100.00;98825.47;1740922;81;21037;-70
2022/06/23 08:07:11;;;;;;;5.70;2.67;;;;;;;19.96;100.00;98810.80;1725384;83;20983;-70
2022/06/23 08:09:54;;;;;;;5.33;2.37;;;;;;;20.11;100.00;98812.77;1730947;83;21053;-73
2022/06/23 08:18:40;;;;;;;4.05;1.92;;;;;;;20.74;100.00;98808.56;1713932;81;21643;-69
2022/06/23 08:21:28;;;;;;;4.05;2.00;;;;;;;21.14;100.00;98823.50;1759260;81;21870;-72
2022/06/23 08:24:11;;;;;;;8.68;2.27;;;;;;;21.35;100.00;98830.86;1738383;81;21125;-74
2022/06/23 08:26:45;;;;;;;8.90;2.12;;;;;;;21.59;100.00;98807.59;1738220;82;21577;-72
2022/06/23 08:29:14;;;;;;;3.72;2.02;;;;;;;21.72;100.00;98809.02;1738543;80;21058;-70
2022/06/23 08:31:41;;;;;;;3.67;1.85;;;;;;;21.77;100.00;98816.45;1727181;81;20998;-71
2022/06/23 08:34:07;;;;;;;2.65;1.80;;;;;;;21.68;100.00;98810.33;1747213;80;21461;-74
2022/06/23 08:36:48;;;;;;;4.60;1.82;;;;;;;21.64;100.00;98812.84;1733880;81;21054;-72
2022/06/23 08:39:24;;;;;;;4.78;2.37;;;;;;;21.40;100.00;98810.39;1740953;81;21645;-71
2022/06/23 08:42:23;;;;;;;5.78;2.40;;;;;;;21.09;100.00;98830.66;1752089;80;21002;-70
2022/06/23 08:45:42;;;;;;;6.97;1.98;;;;;;;20.92;100.00;98828.31;1709071;81;21097;-71
2022/06/23 08:48:29;;;;;;;5.22;2.25;;;;;;;20.78;100.00;98828.80;1764096;80;21062;-71
2022/06/23 08:51:22;;;;;;;3.08;2.00;;;;;;;20.90;100.00;98826.50;1773454;80;21469;-70
2022/06/23 08:54:19;;;;;;;3.62;2.15;;;;;;;21.20;100.00;98831.14;1767238;80;21069;-70
2022/06/23 08:57:10;;;;;;;6.67;2.05;;;;;;;21.26;100.00;98838.56;1772064;81;21065;-72
2022/06/23 08:59:46;;;;;;;3.90;2.20;;;;;;;21.29;100.00;98836.48;1760471;81;21081;-69
2022/06/23 09:02:21;;;;;;;4.42;2.37;;;;;;;21.20;100.00;98849.13;1772199;79;21006;-70
2022/06/23 09:05:20;;;;;;;5.45;2.70;;;;;;;21.17;100.00;98860.94;1771965;80;21041;-70
2022/06/23 09:08:01;;;;;;;4.67;1.90;;;;;;;21.19;100.00;98850.87;1758616;79;21094;-72
2022/06/23 09:11:00;;;;;;;4.65;2.00;;;;;;;21.12;100.00;98861.21;1767203;80;21061;-74
2022/06/23 09:13:51;;;;;;;5.17;1.98;;;;;;;21.01;100.00;98852.45;1655696;85;21069;-72
2022/06/23 09:16:30;;;;;;;2.83;1.90;;;;;;;20.96;100.00;98862.40;1744346;81;21050;-73
2022/06/23 09:19:14;;;;;;;4.22;2.10;;;;;;;20.92;100.00;98855.41;1747357;81;21028;-73
2022/06/23 09:22:06;;;;;;;6.85;1.85;;;;;;;20.95;100.00;98860.78;1763690;81;21014;-72
2022/06/23 09:24:44;;;;;;;2.70;1.77;;;;;;;20.94;100.00;98866.89;1734722;82;21109;-71
2022/06/23 09:27:15;;;;;;;4.17;1.87;;;;;;;21.01;100.00;98870.43;1763843;81;20955;-73
2022/06/23 09:29:47;;;;;;;4.22;1.80;;;;;;;21.09;100.00;98877.12;1737405;81;21484;-71
2022/06/23 09:32:34;;;;;;;2.02;1.60;;;;;;;21.20;100.00;98876.81;1759883;80;21536;-75
2022/06/23 09:35:41;;;;;;;2.67;1.65;;;;;;;21.25;100.00;98871.00;1760643;80;21151;-76
2022/06/23 09:38:28;;;;;;;3.83;1.80;;;;;;;21.24;100.00;98880.46;1765699;81;21034;-72
2022/06/23 09:41:04;;;;;;;;;;;;;;;21.20;100.00;98883.73;1741881;81;21564;-68
2022/06/23 09:44:20;;;;;;;4.33;1.67;;;;;;;21.14;100.00;98876.89;1755121;80;20138;-69
2022/06/23 09:47:08;;;;;;;4.25;1.87;;;;;;;21.10;100.00;98867.70;1748075;80;21076;-71
2022/06/23 09:50:01;;;;;;;3.47;1.75;;;;;;;21.15;100.00;98874.92;1755238;81;21052;-69
2022/06/23 09:52:49;;;;;;;4.00;1.80;;;;;;;21.22;100.00;98879.23;1754388;80;21365;-70
2022/06/23 09:55:52;;;;;;;6.55;2.12;;;;;;;21.26;100.00;98883.66;1752296;81;21564;-70
2022/06/23 09:58:24;;;;;;;6.42;2.05;;;;;;;21.38;100.00;98879.16;1689534;82;21089;-69
2022/06/23 10:01:26;;;;;;;2.70;1.80;;;;;;;21.46;100.00;98886.45;1735630;80;21114;-69
2022/06/23 10:04:40;;;;;;;3.83;1.85;;;;;;;21.50;100.00;98884.56;1764948;80;21002;-71
2022/06/23 10:07:39;;;;;;;3.47;1.60;;;;;;;21.58;100.00;98889.05;1742062;80;21033;-68
2022/06/23 10:10:47;;;;;;;3.52;1.70;;;;;;;21.66;100.00;98897.16;1765029;80;20960;-70
2022/06/23 10:13:31;;;;;;;;;;;;;;;21.77;100.00;98899.56;1768721;80;21113;-69
2022/06/23 10:16:37;;;;;;;3.25;1.60;;;;;;;21.95;100.00;98884.69;1750675;81;20110;-72
2022/06/23 10:19:48;;;;;;;3.35;1.55;;;;;;;21.97;100.00;98890.66;1747665;81;21113;-70
2022/06/23 10:22:36;;;;;;;6.35;1.55;;;;;;;22.05;100.00;98896.55;1766040;81;21022;-70
2022/06/23 10:25:09;;;;;;;4.15;1.30;;;;;;;22.09;100.00;98896.63;1771736;81;21051;-69
2022/06/23 10:28:18;;;;;;;2.75;1.32;;;;;;;22.01;100.00;98894.88;1766325;80;21045;-69
2022/06/23 10:30:54;;;;;;;5.65;1.60;;;;;;;21.93;100.00;98903.64;1770687;80;21102;-70
2022/06/23 10:33:41;;;;;;;3.40;1.40;;;;;;;21.93;100.00;98898.09;1766351;80;21009;-70
2022/06/23 10:36:53;;;;;;;4.95;1.30;;;;;;;21.97;100.00;98907.28;1758842;81;21090;-69
2022/06/23 10:40:01;;;;;;;5.30;1.30;;;;;;;21.98;100.00;98906.13;1763385;80;21035;-70
2022/06/23 10:42:51;;;;;;;5.00;1.55;;;;;;;21.77;100.00;98903.72;1766169;80;20991;-69
2022/06/23 10:45:32;;;;;;;4.05;1.40;;;;;;;21.57;100.00;98919.32;1747261;81;21482;-71
2022/06/23 10:48:10;;;;;;;2.58;1.50;;;;;;;21.54;100.00;98920.05;1727334;81;21750;-72
2022/06/23 10:51:07;;;;;;;2.67;1.50;;;;;;;21.55;100.00;98923.02;1762996;80;21054;-69
2022/06/23 10:53:55;;;;;;;5.08;1.42;;;;;;;21.65;100.00;98919.66;1719265;82;21119;-71
2022/06/23 10:57:01;;;;;;;3.40;1.50;;;;;;;21.72;100.00;98923.38;1765941;80;21023;-71
2022/06/23 10:59:56;;;;;;;2.72;1.35;;;;;;;21.86;100.00;98923.47;1744458;80;21010;-71
2022/06/23 11:02:57;;;;;;;4.12;1.40;;;;;;;22.07;100.00;98925.30;1751963;80;21006;-70
2022/06/23 11:05:51;;;;;;;4.42;1.30;;;;;;;22.28;100.00;98912.61;1769351;80;21067;-69
2022/06/23 11:09:00;;;;;;;6.33;1.50;;;;;;;22.58;100.00;98927.19;1757856;80;21069;-73
2022/06/23 11:11:56;;;;;;;4.10;1.30;;;;;;;22.73;100.00;98921.55;1739813;81;21118;-71
2022/06/23 11:14:45;;;;;;;6.03;1.60;;;;;;;22.60;100.00;98929.02;1685372;83;21083;-72
2022/06/23 11:17:56;;;;;;;3.12;1.50;;;;;;;22.40;100.00;98936.59;1709795;83;21070;-70
2022/06/23 11:20:37;;;;;;;5.58;1.50;;;;;;;22.06;100.00;98937.55;1755978;80;20983;-71
2022/06/23 11:23:40;;;;;;;7.33;1.57;;;;;;;21.67;100.00;98961.09;1740663;81;21037;-71
2022/06/23 11:26:45;;;;;;;3.37;1.45;;;;;;;21.46;100.00;98965.36;1752112;80;21002;-72
2022/06/23 11:30:00;;;;;;;2.87;1.32;;;;;;;21.28;100.00;98965.77;1768475;81;21633;-71
2022/06/23 11:32:50;;;;;;;2.60;1.40;;;;;;;21.17;100.00;98966.10;1754252;81;21060;-73
2022/06/23 11:35:22;;;;;;;3.75;1.75;;;;;;;21.06;100.00;98976.09;1745843;81;21541;-71
2022/06/23 11:38:17;;;;;;;3.75;1.50;;;;;;;21.03;100.00;98976.81;1746089;80;21029;-73
2022/06/23 11:40:58;;;;;;;5.72;1.42;;;;;;;20.99;100.00;98973.14;1754549;80;21552;-70
2022/06/23 11:43:52;;;;;;;3.92;1.62;;;;;;;20.98;100.00;98990.91;1744992;80;21629;-70
2022/06/23 11:46:38;;;;;;;4.12;2.12;;;;;;;20.98;100.00;98991.48;1618321;87;21672;-72
2022/06/23 11:49:28;;;;;;;2.67;1.50;;;;;;;20.97;100.00;98992.66;1694675;83;21405;-71
2022/06/23 11:52:03;;;;;;;3.72;1.40;;;;;;;20.92;100.00;98990.95;1760743;80;21489;-69
2022/06/23 11:54:48;;;;;;;3.80;1.62;;;;;;;20.96;100.00;98986.89;1759103;80;21038;-70
2022/06/23 11:57:53;;;;;;;2.77;1.30;;;;;;;21.02;100.00;98997.91;1773484;80;21027;-69
2022/06/23 12:00:26;;;;;;;3.60;1.70;;;;;;;21.09;100.00;98994.73;1763437;80;20978;-69
2022/06/23 12:03:11;;;;;;;5.17;1.70;;;;;;;21.11;100.00;99010.44;1752347;80;21101;-72
2022/06/23 12:05:46;;;;;;;3.40;1.20;;;;;;;21.18;100.00;99004.27;1742427;80;21007;-71
2022/06/23 12:08:52;;;;;;;6.33;1.85;;;;;;;21.22;100.00;99005.94;1755653;80;21105;-70
2022/06/23 12:11:18;;;;;;;3.77;1.67;;;;;;;21.25;100.00;99012.16;1761051;80;21101;-69
2022/06/23 12:13:45;;;;;;;7.55;1.50;;;;;;;21.25;100.00;99017.70;1758403;80;21040;-69
2022/06/23 12:16:11;;;;;;;3.55;1.62;;;;;;;21.23;100.00;99026.92;1740518;80;21480;-71
2022/06/23 12:18:47;;;;;;;3.12;1.47;;;;;;;21.22;100.00;99030.85;1746389;81;20996;-69
2022/06/23 12:21:37;;;;;;;2.42;1.57;;;;;;;21.18;100.00;99045.79;1768211;81;21090;-69
2022/06/23 12:24:12;;;;;;;2.47;1.47;;;;;;;21.11;100.00;99043.66;1759733;80;21102;-69
2022/06/23 12:26:49;;;;;;;4.72;1.70;;;;;;;20.91;100.00;99042.48;1740974;81;21045;-70
2022/06/23 12:29:41;;;;;;;4.22;1.55;;;;;;;20.73;100.00;99050.32;1747000;81;21079;-71
2022/06/23 12:32:31;;;;;;;5.40;1.70;;;;;;;20.57;100.00;99057.80;1762027;80;21089;-69
2022/06/23 12:35:11;;;;;;;6.20;1.80;;;;;;;20.40;100.00;99069.19;1713312;81;21018;-69
2022/06/23 12:37:50;;;;;;;2.35;1.65;;;;;;;20.32;100.00;99064.03;1740882;82;21054;-71
2022/06/23 12:40:43;;;;;;;3.67;1.57;;;;;;;20.26;100.00;99055.74;1664014;83;21485;-72
2022/06/23 12:43:39;;;;;;;2.85;1.52;;;;;;;20.26;100.00;99059.89;1706337;82;21086;-69
2022/06/23 12:46:19;;;;;;;3.58;1.60;;;;;;;20.30;100.00;99070.47;1660553;85;21076;-69
2022/06/23 12:49:25;;;;;;;4.85;1.42;;;;;;;20.32;100.00;99068.98;1740957;82;21090;-72